Erin, Wisconsin
Current Conditions -  °F | °C
As of 7:35 AM on Saturday 20 Dec 2014 (Local Time) from KRNH Reporting Station
Overcast Overcast  
Wind Chill: 22°   Ceiling: 1300
Heat Index: 28°   Visibility: 7mi
Dew Point: 26°   Wind: 6mph
Humidity: 91%   Direction: 160°SSE
Pressure: 30.17"   Gusts: NA
Location:  45.1804°N, 92.551°W
Report Text: KRNH 201335Z AUTO 16005KT 7SM OVC013 M02/M03 A3017 RMK AO2 T10201033
Loading
Personal Weather Stations






























Interactive Weather Map New forecast layout! Learn more

10-Day Weather Forecast

Advertisements
Track Severe Weather on mobile